Higman Tradition — WDI2368 — position and weather

sailwx.info

Track history (hours):
 
Tides and Currents Weather Stations Pressure Air Temp Water Temp Dewpoint Dewpoint Depression Visibility Wind Speed Wind Dir Waves Ship Positions

Higman Tradition

Owner: Higman Barge Lines, Inc., Orange, TX. More information available from US FCC via Universal Licensing System and Coast Guard Vessel Documentation Center.

Last reported at 2018-Jan-03 22:27 UTC. Time now 2018-Jan-18 12:15 UTC.
Position N 29°32' W 094°53'.
Warning: this ship's position is 14 days out of date.

Length 23 m; draft 3 m.

Type: Towing. MMSI: 367677440.

Date/timePositionNaut miles runAvg speedWind from/ knotsBaromVisibWave heightAir tempDewpointWater temp
2018-Jan-03 22:27N 29°32' W 094°53'4 8.6
2018-Jan-03 22:01N 29°35' W 094°56'4 9.0
2018-Jan-03 21:31N 29°39' W 094°58'4 8.7
2018-Jan-03 21:01N 29°42' W 095°01'4 7.5
2018-Jan-03 20:29N 29°45' W 095°04'7 0.8
2018-Jan-03 11:30N 29°45' W 095°12'0 0.0
2018-Jan-03 09:31N 29°45' W 095°12'0 0.0
2018-Jan-03 08:54N 29°45' W 095°12'0 0.0
2018-Jan-03 08:25N 29°45' W 095°12'0 0.0
2018-Jan-03 07:58N 29°45' W 095°12'0 0.0
2018-Jan-03 07:30N 29°45' W 095°12'0 0.0
2018-Jan-03 07:00N 29°45' W 095°12'0 0.0
2018-Jan-03 06:29N 29°45' W 095°12'0 0.0
2018-Jan-03 05:59N 29°45' W 095°12'0 0.0
2018-Jan-03 05:31N 29°45' W 095°12'0 0.0
2018-Jan-03 05:00N 29°45' W 095°12'0 0.0
2018-Jan-03 04:29N 29°45' W 095°12'0 0.0
2018-Jan-03 03:54N 29°45' W 095°12'0 0.0
2018-Jan-03 03:29N 29°45' W 095°12'0 0.0
2018-Jan-03 03:00N 29°45' W 095°12'0 0.0
2018-Jan-03 02:29N 29°45' W 095°12'0 0.0
2018-Jan-03 02:00N 29°45' W 095°12'0 0.0
2018-Jan-03 01:22N 29°45' W 095°12'0 0.0
2018-Jan-03 00:57N 29°45' W 095°12'0 0.0
2018-Jan-02 21:03N 29°45' W 095°12'1 5.0
2018-Jan-02 20:50N 29°45' W 095°11'4 1.8
2018-Jan-02 18:45N 29°45' W 095°06'2 4.6
2018-Jan-02 18:21N 29°44' W 095°08'3 7.4
2018-Jan-02 17:57N 29°45' W 095°12'3 4.6
2018-Jan-02 17:18N 29°43' W 095°15'3 6.4
2018-Jan-02 16:51N 29°45' W 095°12'4 5.5
2018-Jan-02 16:02N 29°45' W 095°07'  
2017-Dec-30 23:10N 29°46' W 095°07'1 0.5
2017-Dec-30 22:07N 29°46' W 095°06'1 3.3
2017-Dec-30 21:56N 29°45' W 095°06'1 0.0
2017-Dec-30 01:50N 29°46' W 095°06'1 3.8
2017-Dec-30 01:29N 29°44' W 095°07'3 6.4
2017-Dec-30 01:01N 29°45' W 095°10'3 6.0
2017-Dec-30 00:31N 29°44' W 095°13'1 2.3
2017-Dec-29 23:54N 29°44' W 095°12'3 8.1
2017-Dec-29 23:30N 29°44' W 095°08'3 1.7
2017-Dec-29 21:30N 29°46' W 095°05'2 0.1
2017-Dec-29 03:22N 29°46' W 095°07'1 0.0
2017-Dec-28 03:49N 29°46' W 095°06'0 0.3
2017-Dec-28 02:47N 29°46' W 095°07'1 2.3
2017-Dec-28 02:27N 29°45' W 095°06'1 1.9
2017-Dec-28 01:59N 29°46' W 095°05'3 6.8
2017-Dec-28 01:29N 29°44' W 095°02'3 6.7
2017-Dec-28 01:01N 29°41' W 094°59'4 8.5
2017-Dec-28 00:31N 29°37' W 094°58'4 8.5
2017-Dec-28 00:01N 29°34' W 094°55'  
Track history (hours):
 
Tides and Currents Weather Stations Pressure Air Temp Water Temp Dewpoint Dewpoint Depression Visibility Wind Speed Wind Dir Waves Ship Positions

Higman Tradition

Owner: Higman Barge Lines, Inc., Orange, TX. More information available from US FCC via Universal Licensing System and Coast Guard Vessel Documentation Center.

Last reported at 2018-Jan-03 22:27 UTC. Time now 2018-Jan-18 12:15 UTC.
Position N 29°32' W 094°53'.
Warning: this ship's position is 14 days out of date.

Length 23 m; draft 3 m.

Type: Towing. MMSI: 367677440.

Date/timePositionNaut miles runAvg speedWind from/ knotsBaromVisibWave heightAir tempDewpointWater temp
2018-Jan-03 22:27N 29°32' W 094°53'4 8.6
2018-Jan-03 22:01N 29°35' W 094°56'4 9.0
2018-Jan-03 21:31N 29°39' W 094°58'4 8.7
2018-Jan-03 21:01N 29°42' W 095°01'4 7.5
2018-Jan-03 20:29N 29°45' W 095°04'7 0.8
2018-Jan-03 11:30N 29°45' W 095°12'0 0.0
2018-Jan-03 09:31N 29°45' W 095°12'0 0.0
2018-Jan-03 08:54N 29°45' W 095°12'0 0.0
2018-Jan-03 08:25N 29°45' W 095°12'0 0.0
2018-Jan-03 07:58N 29°45' W 095°12'0 0.0
2018-Jan-03 07:30N 29°45' W 095°12'0 0.0
2018-Jan-03 07:00N 29°45' W 095°12'0 0.0
2018-Jan-03 06:29N 29°45' W 095°12'0 0.0
2018-Jan-03 05:59N 29°45' W 095°12'0 0.0
2018-Jan-03 05:31N 29°45' W 095°12'0 0.0
2018-Jan-03 05:00N 29°45' W 095°12'0 0.0
2018-Jan-03 04:29N 29°45' W 095°12'0 0.0
2018-Jan-03 03:54N 29°45' W 095°12'0 0.0
2018-Jan-03 03:29N 29°45' W 095°12'0 0.0
2018-Jan-03 03:00N 29°45' W 095°12'0 0.0
2018-Jan-03 02:29N 29°45' W 095°12'0 0.0
2018-Jan-03 02:00N 29°45' W 095°12'0 0.0
2018-Jan-03 01:22N 29°45' W 095°12'0 0.0
2018-Jan-03 00:57N 29°45' W 095°12'0 0.0
2018-Jan-02 21:03N 29°45' W 095°12'1 5.0
2018-Jan-02 20:50N 29°45' W 095°11'4 1.8
2018-Jan-02 18:45N 29°45' W 095°06'2 4.6
2018-Jan-02 18:21N 29°44' W 095°08'3 7.4
2018-Jan-02 17:57N 29°45' W 095°12'3 4.6
2018-Jan-02 17:18N 29°43' W 095°15'3 6.4
2018-Jan-02 16:51N 29°45' W 095°12'4 5.5
2018-Jan-02 16:02N 29°45' W 095°07'  
2017-Dec-30 23:10N 29°46' W 095°07'1 0.5
2017-Dec-30 22:07N 29°46' W 095°06'1 3.3
2017-Dec-30 21:56N 29°45' W 095°06'1 0.0
2017-Dec-30 01:50N 29°46' W 095°06'1 3.8
2017-Dec-30 01:29N 29°44' W 095°07'3 6.4
2017-Dec-30 01:01N 29°45' W 095°10'3 6.0
2017-Dec-30 00:31N 29°44' W 095°13'1 2.3
2017-Dec-29 23:54N 29°44' W 095°12'3 8.1
2017-Dec-29 23:30N 29°44' W 095°08'3 1.7
2017-Dec-29 21:30N 29°46' W 095°05'2 0.1
2017-Dec-29 03:22N 29°46' W 095°07'1 0.0
2017-Dec-28 03:49N 29°46' W 095°06'0 0.3
2017-Dec-28 02:47N 29°46' W 095°07'1 2.3
2017-Dec-28 02:27N 29°45' W 095°06'1 1.9
2017-Dec-28 01:59N 29°46' W 095°05'3 6.8
2017-Dec-28 01:29N 29°44' W 095°02'3 6.7
2017-Dec-28 01:01N 29°41' W 094°59'4 8.5
2017-Dec-28 00:31N 29°37' W 094°58'4 8.5
2017-Dec-28 00:01N 29°34' W 094°55'  

Dump ship's entire track history